sensor_id;sensor_type;location;lat;lon;timestamp;pressure;altitude;pressure_sealevel;temperature;humidity
59367;BME280;45163;47.690;11.770;2023-06-26T00:02:10;93449.66;;;15.71;100.00
59367;BME280;45163;47.690;11.770;2023-06-26T00:04:36;93446.91;;;15.71;100.00
59367;BME280;45163;47.690;11.770;2023-06-26T00:07:04;93443.88;;;15.59;100.00
59367;BME280;45163;47.690;11.770;2023-06-26T00:09:30;93443.88;;;15.50;100.00
59367;BME280;45163;47.690;11.770;2023-06-26T00:11:56;93439.94;;;15.51;100.00
59367;BME280;45163;47.690;11.770;2023-06-26T00:14:22;93439.00;;;15.54;100.00
59367;BME280;45163;47.690;11.770;2023-06-26T00:16:48;93438.16;;;15.20;100.00
59367;BME280;45163;47.690;11.770;2023-06-26T00:19:15;93441.84;;;15.17;100.00
59367;BME280;45163;47.690;11.770;2023-06-26T00:21:41;93444.28;;;15.15;100.00
59367;BME280;45163;47.690;11.770;2023-06-26T00:24:15;93445.06;;;14.98;100.00
59367;BME280;45163;47.690;11.770;2023-06-26T00:26:41;93447.97;;;14.94;100.00
59367;BME280;45163;47.690;11.770;2023-06-26T00:29:07;93440.94;;;14.93;100.00
59367;BME280;45163;47.690;11.770;2023-06-26T00:31:33;93439.56;;;14.70;100.00
59367;BME280;45163;47.690;11.770;2023-06-26T00:34:01;93444.63;;;14.81;100.00
59367;BME280;45163;47.690;11.770;2023-06-26T00:36:27;93446.28;;;14.87;100.00
59367;BME280;45163;47.690;11.770;2023-06-26T00:38:53;93444.91;;;14.92;100.00
59367;BME280;45163;47.690;11.770;2023-06-26T00:41:19;93442.59;;;15.00;100.00
59367;BME280;45163;47.690;11.770;2023-06-26T00:43:45;93452.06;;;15.08;100.00
59367;BME280;45163;47.690;11.770;2023-06-26T00:46:14;93443.66;;;15.11;100.00
59367;BME280;45163;47.690;11.770;2023-06-26T00:48:46;93449.31;;;14.62;100.00
59367;BME280;45163;47.690;11.770;2023-06-26T00:51:12;93448.28;;;14.68;100.00
59367;BME280;45163;47.690;11.770;2023-06-26T00:53:38;93448.72;;;14.85;100.00
59367;BME280;45163;47.690;11.770;2023-06-26T00:56:05;93435.91;;;14.82;100.00
59367;BME280;45163;47.690;11.770;2023-06-26T00:58:31;93450.41;;;14.83;100.00
59367;BME280;45163;47.690;11.770;2023-06-26T01:00:57;93442.16;;;14.83;100.00
59367;BME280;45163;47.690;11.770;2023-06-26T01:03:24;93444.44;;;14.75;100.00
59367;BME280;45163;47.690;11.770;2023-06-26T01:05:56;93443.06;;;14.70;100.00
59367;BME280;45163;47.690;11.770;2023-06-26T01:08:25;93447.19;;;14.66;100.00
59367;BME280;45163;47.690;11.770;2023-06-26T01:10:51;93441.41;;;14.64;100.00
59367;BME280;45163;47.690;11.770;2023-06-26T01:13:17;93449.03;;;14.60;100.00
59367;BME280;45163;47.690;11.770;2023-06-26T01:15:43;93450.84;;;14.63;100.00
59367;BME280;45163;47.690;11.770;2023-06-26T01:18:10;93449.66;;;14.64;100.00
59367;BME280;45163;47.690;11.770;2023-06-26T01:20:37;93452.69;;;14.66;100.00
59367;BME280;45163;47.690;11.770;2023-06-26T01:23:12;93449.72;;;14.33;100.00
59367;BME280;45163;47.690;11.770;2023-06-26T01:28:16;93448.09;;;14.54;100.00
59367;BME280;45163;47.690;11.770;2023-06-26T01:30:44;93439.72;;;14.66;100.00
59367;BME280;45163;47.690;11.770;2023-06-26T01:33:12;93428.28;;;14.86;100.00
59367;BME280;45163;47.690;11.770;2023-06-26T01:35:38;93432.25;;;14.85;100.00
59367;BME280;45163;47.690;11.770;2023-06-26T01:38:18;93437.00;;;14.76;100.00
59367;BME280;45163;47.690;11.770;2023-06-26T01:40:44;93434.38;;;14.72;100.00
59367;BME280;45163;47.690;11.770;2023-06-26T01:43:21;93440.19;;;14.56;100.00
59367;BME280;45163;47.690;11.770;2023-06-26T01:45:51;93440.59;;;14.45;100.00
59367;BME280;45163;47.690;11.770;2023-06-26T01:48:23;93438.91;;;14.38;100.00
59367;BME280;45163;47.690;11.770;2023-06-26T01:50:52;93437.06;;;14.35;100.00
59367;BME280;45163;47.690;11.770;2023-06-26T01:53:21;93436.88;;;14.20;100.00
59367;BME280;45163;47.690;11.770;2023-06-26T01:56:19;93431.84;;;14.10;100.00
59367;BME280;45163;47.690;11.770;2023-06-26T01:58:47;93432.59;;;14.10;100.00
59367;BME280;45163;47.690;11.770;2023-06-26T02:01:15;93437.31;;;14.10;100.00
59367;BME280;45163;47.690;11.770;2023-06-26T02:03:41;93438.06;;;14.01;100.00
59367;BME280;45163;47.690;11.770;2023-06-26T02:06:07;93441.28;;;14.09;100.00
59367;BME280;45163;47.690;11.770;2023-06-26T02:08:33;93433.06;;;14.09;100.00
59367;BME280;45163;47.690;11.770;2023-06-26T02:10:59;93435.22;;;14.14;100.00
59367;BME280;45163;47.690;11.770;2023-06-26T02:13:25;93434.88;;;14.12;100.00
59367;BME280;45163;47.690;11.770;2023-06-26T02:15:51;93438.38;;;14.12;100.00
59367;BME280;45163;47.690;11.770;2023-06-26T02:18:17;93439.47;;;14.15;100.00
59367;BME280;45163;47.690;11.770;2023-06-26T02:20:43;93438.72;;;14.14;100.00
59367;BME280;45163;47.690;11.770;2023-06-26T02:23:09;93444.06;;;14.18;100.00
59367;BME280;45163;47.690;11.770;2023-06-26T02:25:35;93442.50;;;14.17;100.00
59367;BME280;45163;47.690;11.770;2023-06-26T02:28:01;93438.72;;;14.14;100.00
59367;BME280;45163;47.690;11.770;2023-06-26T02:30:27;93444.66;;;14.13;100.00
59367;BME280;45163;47.690;11.770;2023-06-26T02:32:53;93444.53;;;14.26;100.00
59367;BME280;45163;47.690;11.770;2023-06-26T02:35:19;93441.34;;;14.36;100.00
59367;BME280;45163;47.690;11.770;2023-06-26T02:37:45;93446.53;;;14.43;100.00
59367;BME280;45163;47.690;11.770;2023-06-26T02:40:11;93445.47;;;14.41;100.00
59367;BME280;45163;47.690;11.770;2023-06-26T02:42:37;93442.56;;;14.44;100.00
59367;BME280;45163;47.690;11.770;2023-06-26T02:45:04;93447.81;;;14.52;100.00
59367;BME280;45163;47.690;11.770;2023-06-26T02:47:30;93443.38;;;14.54;100.00
59367;BME280;45163;47.690;11.770;2023-06-26T02:49:55;93441.09;;;14.53;100.00
59367;BME280;45163;47.690;11.770;2023-06-26T02:52:21;93442.28;;;14.42;100.00
59367;BME280;45163;47.690;11.770;2023-06-26T02:54:47;93445.91;;;14.30;100.00
59367;BME280;45163;47.690;11.770;2023-06-26T02:57:13;93448.97;;;14.32;100.00
59367;BME280;45163;47.690;11.770;2023-06-26T02:59:40;93440.44;;;14.30;100.00
59367;BME280;45163;47.690;11.770;2023-06-26T03:02:06;93450.66;;;14.39;100.00
59367;BME280;45163;47.690;11.770;2023-06-26T03:04:32;93448.22;;;14.41;100.00
59367;BME280;45163;47.690;11.770;2023-06-26T03:07:02;93441.81;;;14.44;100.00
59367;BME280;45163;47.690;11.770;2023-06-26T03:09:28;93448.97;;;14.41;100.00
59367;BME280;45163;47.690;11.770;2023-06-26T03:11:54;93448.72;;;14.58;100.00
59367;BME280;45163;47.690;11.770;2023-06-26T03:14:21;93441.69;;;14.66;100.00
59367;BME280;45163;47.690;11.770;2023-06-26T03:16:47;93441.25;;;14.67;100.00
59367;BME280;45163;47.690;11.770;2023-06-26T03:19:13;93431.19;;;14.64;100.00
59367;BME280;45163;47.690;11.770;2023-06-26T03:21:39;93446.41;;;14.47;100.00
59367;BME280;45163;47.690;11.770;2023-06-26T03:24:05;93440.56;;;14.36;100.00
59367;BME280;45163;47.690;11.770;2023-06-26T03:26:31;93446.06;;;14.27;100.00
59367;BME280;45163;47.690;11.770;2023-06-26T03:28:58;93444.06;;;14.18;100.00
59367;BME280;45163;47.690;11.770;2023-06-26T03:31:24;93447.69;;;14.15;100.00
59367;BME280;45163;47.690;11.770;2023-06-26T03:33:50;93451.81;;;14.10;100.00
59367;BME280;45163;47.690;11.770;2023-06-26T03:36:16;93453.75;;;13.60;100.00
59367;BME280;45163;47.690;11.770;2023-06-26T03:38:42;93454.47;;;13.83;100.00
59367;BME280;45163;47.690;11.770;2023-06-26T03:41:08;93454.78;;;13.54;100.00
59367;BME280;45163;47.690;11.770;2023-06-26T03:43:34;93460.97;;;13.67;100.00
59367;BME280;45163;47.690;11.770;2023-06-26T03:46:00;93457.75;;;13.68;100.00
59367;BME280;45163;47.690;11.770;2023-06-26T03:48:26;93453.41;;;13.80;100.00
59367;BME280;45163;47.690;11.770;2023-06-26T03:50:52;93460.75;;;13.92;100.00
59367;BME280;45163;47.690;11.770;2023-06-26T03:53:18;93449.19;;;13.98;100.00
59367;BME280;45163;47.690;11.770;2023-06-26T03:55:44;93449.94;;;13.98;100.00
59367;BME280;45163;47.690;11.770;2023-06-26T03:58:10;93463.66;;;13.98;100.00
59367;BME280;45163;47.690;11.770;2023-06-26T04:00:36;93451.94;;;13.98;100.00
59367;BME280;45163;47.690;11.770;2023-06-26T04:03:02;93455.50;;;13.76;100.00
59367;BME280;45163;47.690;11.770;2023-06-26T04:05:28;93460.03;;;13.70;100.00
59367;BME280;45163;47.690;11.770;2023-06-26T04:07:54;93453.25;;;13.84;100.00
59367;BME280;45163;47.690;11.770;2023-06-26T04:10:20;93446.09;;;13.86;100.00
59367;BME280;45163;47.690;11.770;2023-06-26T04:12:47;93461.03;;;13.85;100.00
59367;BME280;45163;47.690;11.770;2023-06-26T04:15:13;93455.94;;;13.75;100.00
59367;BME280;45163;47.690;11.770;2023-06-26T04:17:39;93453.66;;;13.73;100.00
59367;BME280;45163;47.690;11.770;2023-06-26T04:20:06;93451.22;;;13.75;100.00
59367;BME280;45163;47.690;11.770;2023-06-26T04:22:33;93453.66;;;13.73;100.00
59367;BME280;45163;47.690;11.770;2023-06-26T04:25:02;93458.25;;;13.76;100.00
59367;BME280;45163;47.690;11.770;2023-06-26T04:27:28;93452.31;;;13.78;100.00
59367;BME280;45163;47.690;11.770;2023-06-26T04:29:55;93459.81;;;13.86;100.00
59367;BME280;45163;47.690;11.770;2023-06-26T04:32:21;93460.59;;;13.96;100.00
59367;BME280;45163;47.690;11.770;2023-06-26T04:34:48;93455.16;;;14.05;100.00
59367;BME280;45163;47.690;11.770;2023-06-26T04:37:14;93455.31;;;14.11;100.00
59367;BME280;45163;47.690;11.770;2023-06-26T04:39:43;93455.66;;;14.13;100.00
59367;BME280;45163;47.690;11.770;2023-06-26T04:42:09;93458.53;;;14.18;100.00
59367;BME280;45163;47.690;11.770;2023-06-26T04:44:38;93450.06;;;14.44;100.00
59367;BME280;45163;47.690;11.770;2023-06-26T04:47:07;93454.19;;;14.49;100.00
59367;BME280;45163;47.690;11.770;2023-06-26T04:49:33;93449.50;;;14.77;100.00
59367;BME280;45163;47.690;11.770;2023-06-26T04:51:59;93454.69;;;15.02;100.00
59367;BME280;45163;47.690;11.770;2023-06-26T04:54:26;93447.78;;;15.34;100.00
59367;BME280;45163;47.690;11.770;2023-06-26T04:56:53;93443.56;;;15.57;100.00
59367;BME280;45163;47.690;11.770;2023-06-26T04:59:19;93441.09;;;15.78;100.00
59367;BME280;45163;47.690;11.770;2023-06-26T05:01:45;93438.50;;;16.07;100.00
59367;BME280;45163;47.690;11.770;2023-06-26T05:04:14;93443.22;;;16.40;100.00
59367;BME280;45163;47.690;11.770;2023-06-26T05:06:41;93444.75;;;16.65;100.00
59367;BME280;45163;47.690;11.770;2023-06-26T05:09:07;93445.03;;;16.76;100.00
59367;BME280;45163;47.690;11.770;2023-06-26T05:11:33;93445.84;;;17.06;100.00
59367;BME280;45163;47.690;11.770;2023-06-26T05:13:59;93439.03;;;17.31;100.00
59367;BME280;45163;47.690;11.770;2023-06-26T05:16:25;93453.09;;;17.63;100.00
59367;BME280;45163;47.690;11.770;2023-06-26T05:18:51;93440.56;;;17.77;100.00
59367;BME280;45163;47.690;11.770;2023-06-26T05:21:18;93441.34;;;18.27;99.35
59367;BME280;45163;47.690;11.770;2023-06-26T05:23:44;93434.25;;;18.61;96.31
59367;BME280;45163;47.690;11.770;2023-06-26T05:26:11;93435.09;;;18.88;94.71
59367;BME280;45163;47.690;11.770;2023-06-26T05:28:39;93437.22;;;19.19;91.88
59367;BME280;45163;47.690;11.770;2023-06-26T05:31:05;93432.28;;;19.29;89.04
59367;BME280;45163;47.690;11.770;2023-06-26T05:33:34;93432.97;;;19.76;89.63
59367;BME280;45163;47.690;11.770;2023-06-26T05:36:03;93434.16;;;19.95;86.27
59367;BME280;45163;47.690;11.770;2023-06-26T05:38:32;93434.84;;;20.22;85.61
59367;BME280;45163;47.690;11.770;2023-06-26T05:41:00;93425.56;;;20.30;83.89
59367;BME280;45163;47.690;11.770;2023-06-26T05:43:26;93430.16;;;20.39;83.82
59367;BME280;45163;47.690;11.770;2023-06-26T05:45:52;93432.09;;;20.27;84.43
59367;BME280;45163;47.690;11.770;2023-06-26T05:48:18;93425.66;;;20.42;81.56
59367;BME280;45163;47.690;11.770;2023-06-26T05:50:44;93424.03;;;20.24;82.78
59367;BME280;45163;47.690;11.770;2023-06-26T05:53:11;93422.13;;;20.41;80.16
59367;BME280;45163;47.690;11.770;2023-06-26T05:55:37;93432.91;;;20.76;77.48
59367;BME280;45163;47.690;11.770;2023-06-26T05:58:03;93428.09;;;20.77;75.50
59367;BME280;45163;47.690;11.770;2023-06-26T06:00:30;93421.97;;;21.21;75.91
59367;BME280;45163;47.690;11.770;2023-06-26T06:02:56;93416.25;;;21.64;74.50
59367;BME280;45163;47.690;11.770;2023-06-26T06:05:22;93421.84;;;21.92;73.04
59367;BME280;45163;47.690;11.770;2023-06-26T06:07:49;93425.88;;;21.97;71.41
59367;BME280;45163;47.690;11.770;2023-06-26T06:10:15;93420.31;;;22.08;71.89
59367;BME280;45163;47.690;11.770;2023-06-26T06:12:41;93422.84;;;22.11;68.65
59367;BME280;45163;47.690;11.770;2023-06-26T06:15:07;93419.72;;;22.71;69.60
59367;BME280;45163;47.690;11.770;2023-06-26T06:17:33;93420.72;;;22.79;69.14
59367;BME280;45163;47.690;11.770;2023-06-26T06:19:59;93410.34;;;23.32;67.22
59367;BME280;45163;47.690;11.770;2023-06-26T06:22:25;93413.63;;;23.78;66.34
59367;BME280;45163;47.690;11.770;2023-06-26T06:24:51;93413.81;;;24.21;63.35
59367;BME280;45163;47.690;11.770;2023-06-26T06:27:17;93411.28;;;24.72;61.82
59367;BME280;45163;47.690;11.770;2023-06-26T06:29:43;93407.31;;;24.87;59.63
59367;BME280;45163;47.690;11.770;2023-06-26T06:32:09;93406.63;;;25.62;53.45
59367;BME280;45163;47.690;11.770;2023-06-26T06:34:35;93405.97;;;24.93;55.67
59367;BME280;45163;47.690;11.770;2023-06-26T06:37:02;93402.66;;;24.95;60.10
59367;BME280;45163;47.690;11.770;2023-06-26T06:39:29;93411.38;;;25.29;56.57
59367;BME280;45163;47.690;11.770;2023-06-26T06:41:55;93408.59;;;25.86;55.05
59367;BME280;45163;47.690;11.770;2023-06-26T06:44:21;93401.28;;;25.45;54.04
59367;BME280;45163;47.690;11.770;2023-06-26T06:46:48;93410.84;;;25.87;53.76
59367;BME280;45163;47.690;11.770;2023-06-26T06:49:14;93413.09;;;26.53;51.47
59367;BME280;45163;47.690;11.770;2023-06-26T06:51:40;93398.88;;;27.04;48.71
59367;BME280;45163;47.690;11.770;2023-06-26T06:54:06;93405.88;;;27.37;48.11
59367;BME280;45163;47.690;11.770;2023-06-26T06:56:32;93406.66;;;27.11;46.15
59367;BME280;45163;47.690;11.770;2023-06-26T06:58:58;93401.91;;;27.67;45.34
59367;BME280;45163;47.690;11.770;2023-06-26T07:01:24;93410.94;;;28.07;45.59
59367;BME280;45163;47.690;11.770;2023-06-26T07:03:50;93402.25;;;27.63;46.66
59367;BME280;45163;47.690;11.770;2023-06-26T07:06:16;93399.53;;;28.75;43.13
59367;BME280;45163;47.690;11.770;2023-06-26T07:08:42;93395.25;;;29.39;42.00
59367;BME280;45163;47.690;11.770;2023-06-26T07:11:08;93397.19;;;29.16;41.57
59367;BME280;45163;47.690;11.770;2023-06-26T07:13:34;93400.59;;;28.93;41.33
59367;BME280;45163;47.690;11.770;2023-06-26T07:16:00;93396.03;;;29.11;39.87
59367;BME280;45163;47.690;11.770;2023-06-26T07:18:26;93397.75;;;30.17;38.57
59367;BME280;45163;47.690;11.770;2023-06-26T07:20:52;93394.16;;;30.01;37.33
59367;BME280;45163;47.690;11.770;2023-06-26T07:23:18;93389.16;;;29.64;38.21
59367;BME280;45163;47.690;11.770;2023-06-26T07:25:44;93395.59;;;29.87;38.33
59367;BME280;45163;47.690;11.770;2023-06-26T07:28:11;93387.34;;;29.82;38.21
59367;BME280;45163;47.690;11.770;2023-06-26T07:30:37;93387.31;;;29.22;38.84
59367;BME280;45163;47.690;11.770;2023-06-26T07:33:03;93392.22;;;29.81;39.14
59367;BME280;45163;47.690;11.770;2023-06-26T07:35:29;93398.56;;;29.30;40.42
59367;BME280;45163;47.690;11.770;2023-06-26T07:37:55;93399.63;;;30.30;39.64
59367;BME280;45163;47.690;11.770;2023-06-26T07:40:21;93396.75;;;29.99;38.54
59367;BME280;45163;47.690;11.770;2023-06-26T07:42:47;93397.22;;;29.67;38.67
59367;BME280;45163;47.690;11.770;2023-06-26T07:45:13;93397.94;;;30.58;36.39
59367;BME280;45163;47.690;11.770;2023-06-26T07:47:39;93394.28;;;31.18;35.67
59367;BME280;45163;47.690;11.770;2023-06-26T07:50:06;93396.66;;;32.26;33.89
59367;BME280;45163;47.690;11.770;2023-06-26T07:52:32;93402.97;;;32.41;30.94
59367;BME280;45163;47.690;11.770;2023-06-26T07:54:58;93390.06;;;33.67;28.54
59367;BME280;45163;47.690;11.770;2023-06-26T07:57:24;93386.50;;;32.97;29.14
59367;BME280;45163;47.690;11.770;2023-06-26T07:59:50;93389.59;;;33.27;27.74
59367;BME280;45163;47.690;11.770;2023-06-26T08:02:16;93386.94;;;33.11;28.07
59367;BME280;45163;47.690;11.770;2023-06-26T08:04:43;93392.25;;;33.07;29.24
59367;BME280;45163;47.690;11.770;2023-06-26T08:07:10;93399.81;;;33.57;28.99
59367;BME280;45163;47.690;11.770;2023-06-26T08:09:36;93394.00;;;33.20;29.09
59367;BME280;45163;47.690;11.770;2023-06-26T08:12:02;93393.06;;;33.00;28.90
59367;BME280;45163;47.690;11.770;2023-06-26T08:14:28;93401.91;;;33.39;27.86
59367;BME280;45163;47.690;11.770;2023-06-26T08:16:54;93392.50;;;34.15;27.87
59367;BME280;45163;47.690;11.770;2023-06-26T08:19:20;93397.03;;;33.84;27.87
59367;BME280;45163;47.690;11.770;2023-06-26T08:21:47;93392.66;;;34.17;27.04
59367;BME280;45163;47.690;11.770;2023-06-26T08:24:13;93392.22;;;33.77;28.12
59367;BME280;45163;47.690;11.770;2023-06-26T08:26:41;93394.59;;;34.52;28.14
59367;BME280;45163;47.690;11.770;2023-06-26T08:29:07;93396.31;;;34.37;27.45
59367;BME280;45163;47.690;11.770;2023-06-26T08:31:34;93390.91;;;35.15;27.17
59367;BME280;45163;47.690;11.770;2023-06-26T08:34:04;93404.41;;;34.14;27.96
59367;BME280;45163;47.690;11.770;2023-06-26T08:36:31;93392.75;;;32.96;28.97
59367;BME280;45163;47.690;11.770;2023-06-26T08:38:57;93398.78;;;32.50;30.24
59367;BME280;45163;47.690;11.770;2023-06-26T08:41:24;93391.44;;;31.26;31.43
59367;BME280;45163;47.690;11.770;2023-06-26T08:43:50;93388.78;;;31.43;32.57
59367;BME280;45163;47.690;11.770;2023-06-26T08:46:18;93396.53;;;31.28;32.91
59367;BME280;45163;47.690;11.770;2023-06-26T08:48:48;93384.31;;;31.25;31.68
59367;BME280;45163;47.690;11.770;2023-06-26T08:51:17;93390.69;;;31.41;31.71
59367;BME280;45163;47.690;11.770;2023-06-26T08:53:52;93392.63;;;31.23;33.91
59367;BME280;45163;47.690;11.770;2023-06-26T08:56:22;93397.06;;;31.49;33.77
59367;BME280;45163;47.690;11.770;2023-06-26T08:58:48;93385.06;;;31.25;33.74
59367;BME280;45163;47.690;11.770;2023-06-26T09:01:15;93390.50;;;32.69;31.80
59367;BME280;45163;47.690;11.770;2023-06-26T09:03:41;93384.56;;;34.14;28.40
59367;BME280;45163;47.690;11.770;2023-06-26T09:06:07;93377.31;;;34.20;27.96
59367;BME280;45163;47.690;11.770;2023-06-26T09:08:34;93376.78;;;32.66;28.74
59367;BME280;45163;47.690;11.770;2023-06-26T09:11:00;93388.09;;;33.60;28.69
59367;BME280;45163;47.690;11.770;2023-06-26T09:13:28;93385.75;;;32.72;29.03
59367;BME280;45163;47.690;11.770;2023-06-26T09:15:54;93380.00;;;33.39;29.71
59367;BME280;45163;47.690;11.770;2023-06-26T09:18:21;93396.66;;;32.26;30.48
59367;BME280;45163;47.690;11.770;2023-06-26T09:20:48;93384.19;;;32.04;31.89
59367;BME280;45163;47.690;11.770;2023-06-26T09:23:14;93394.91;;;32.63;30.34
59367;BME280;45163;47.690;11.770;2023-06-26T09:25:40;93380.06;;;33.84;29.37
59367;BME280;45163;47.690;11.770;2023-06-26T09:28:08;93376.06;;;33.87;28.72
59367;BME280;45163;47.690;11.770;2023-06-26T09:30:35;93376.31;;;34.35;27.71
59367;BME280;45163;47.690;11.770;2023-06-26T09:35:40;93365.78;;;32.95;27.74
59367;BME280;45163;47.690;11.770;2023-06-26T09:38:06;93360.44;;;35.06;25.95
59367;BME280;45163;47.690;11.770;2023-06-26T09:40:33;93367.38;;;36.21;24.77
59367;BME280;45163;47.690;11.770;2023-06-26T09:43:05;93368.31;;;36.86;24.41
59367;BME280;45163;47.690;11.770;2023-06-26T09:45:32;93371.47;;;36.49;23.81
59367;BME280;45163;47.690;11.770;2023-06-26T09:48:03;93374.88;;;36.16;24.86
59367;BME280;45163;47.690;11.770;2023-06-26T09:50:30;93368.38;;;35.65;23.81
59367;BME280;45163;47.690;11.770;2023-06-26T09:53:10;93363.41;;;36.05;23.04
59367;BME280;45163;47.690;11.770;2023-06-26T09:55:36;93364.88;;;36.56;23.13
59367;BME280;45163;47.690;11.770;2023-06-26T09:58:03;93362.16;;;37.32;22.60
59367;BME280;45163;47.690;11.770;2023-06-26T10:00:32;93366.66;;;37.57;22.19
59367;BME280;45163;47.690;11.770;2023-06-26T10:02:59;93363.56;;;36.48;23.07
59367;BME280;45163;47.690;11.770;2023-06-26T10:05:26;93354.44;;;35.02;24.22
59367;BME280;45163;47.690;11.770;2023-06-26T10:07:53;93368.00;;;34.93;24.81
59367;BME280;45163;47.690;11.770;2023-06-26T10:10:19;93360.47;;;35.54;23.66
59367;BME280;45163;47.690;11.770;2023-06-26T10:12:48;93364.22;;;36.99;23.17
59367;BME280;45163;47.690;11.770;2023-06-26T10:15:15;93352.56;;;37.71;20.44
59367;BME280;45163;47.690;11.770;2023-06-26T10:17:43;93350.81;;;38.67;19.83
59367;BME280;45163;47.690;11.770;2023-06-26T10:20:13;93354.03;;;37.93;19.44
59367;BME280;45163;47.690;11.770;2023-06-26T10:22:44;93342.00;;;38.51;19.32
59367;BME280;45163;47.690;11.770;2023-06-26T10:25:10;93341.25;;;38.39;18.59
59367;BME280;45163;47.690;11.770;2023-06-26T10:27:42;93338.31;;;37.59;19.52
59367;BME280;45163;47.690;11.770;2023-06-26T10:30:16;93341.47;;;35.18;22.55
59367;BME280;45163;47.690;11.770;2023-06-26T10:32:43;93355.69;;;35.37;21.97
59367;BME280;45163;47.690;11.770;2023-06-26T10:35:11;93343.88;;;35.41;21.92
59367;BME280;45163;47.690;11.770;2023-06-26T10:37:45;93350.84;;;36.80;20.79
59367;BME280;45163;47.690;11.770;2023-06-26T10:40:13;93348.03;;;35.79;21.36
59367;BME280;45163;47.690;11.770;2023-06-26T10:42:39;93341.25;;;34.40;22.37
59367;BME280;45163;47.690;11.770;2023-06-26T10:45:19;93339.16;;;33.33;22.93
59367;BME280;45163;47.690;11.770;2023-06-26T10:47:47;93355.31;;;32.63;24.75
59367;BME280;45163;47.690;11.770;2023-06-26T10:55:59;93337.00;;;33.24;24.25
59367;BME280;45163;47.690;11.770;2023-06-26T11:03:40;93337.88;;;35.76;21.94
59367;BME280;45163;47.690;11.770;2023-06-26T11:06:10;93337.56;;;36.32;21.18
59367;BME280;45163;47.690;11.770;2023-06-26T11:12:01;93338.38;;;38.74;19.58
59367;BME280;45163;47.690;11.770;2023-06-26T11:14:31;93329.34;;;38.78;18.21
59367;BME280;45163;47.690;11.770;2023-06-26T11:16:58;93319.38;;;39.02;18.50
59367;BME280;45163;47.690;11.770;2023-06-26T11:19:26;93333.59;;;39.63;17.88
59367;BME280;45163;47.690;11.770;2023-06-26T11:21:58;93328.19;;;40.06;17.33
59367;BME280;45163;47.690;11.770;2023-06-26T11:24:25;93325.00;;;39.75;16.98
59367;BME280;45163;47.690;11.770;2023-06-26T11:26:51;93330.75;;;37.97;19.20
59367;BME280;45163;47.690;11.770;2023-06-26T11:29:17;93324.19;;;39.23;18.28
59367;BME280;45163;47.690;11.770;2023-06-26T11:31:43;93326.56;;;39.15;18.38
59367;BME280;45163;47.690;11.770;2023-06-26T11:34:11;93313.44;;;40.24;16.40
59367;BME280;45163;47.690;11.770;2023-06-26T11:36:38;93316.84;;;40.08;17.63
59367;BME280;45163;47.690;11.770;2023-06-26T11:39:05;93314.41;;;40.03;17.15
59367;BME280;45163;47.690;11.770;2023-06-26T11:41:33;93323.25;;;38.95;18.47
59367;BME280;45163;47.690;11.770;2023-06-26T11:44:08;93324.41;;;36.68;19.89
59367;BME280;45163;47.690;11.770;2023-06-26T11:46:35;93317.97;;;37.53;20.36
59367;BME280;45163;47.690;11.770;2023-06-26T11:49:05;93319.41;;;36.99;20.42
59367;BME280;45163;47.690;11.770;2023-06-26T11:51:32;93315.41;;;35.89;20.88
59367;BME280;45163;47.690;11.770;2023-06-26T11:54:00;93324.72;;;36.62;19.88
59367;BME280;45163;47.690;11.770;2023-06-26T11:56:28;93318.84;;;37.88;19.73
59367;BME280;45163;47.690;11.770;2023-06-26T12:01:21;93313.78;;;38.10;19.54
59367;BME280;45163;47.690;11.770;2023-06-26T12:03:49;93320.28;;;38.34;19.30
59367;BME280;45163;47.690;11.770;2023-06-26T12:06:16;93311.97;;;38.85;18.04
59367;BME280;45163;47.690;11.770;2023-06-26T12:08:43;93318.06;;;36.79;20.34
59367;BME280;45163;47.690;11.770;2023-06-26T12:11:09;93305.72;;;34.86;22.47
59367;BME280;45163;47.690;11.770;2023-06-26T12:13:36;93310.06;;;34.31;23.10
59367;BME280;45163;47.690;11.770;2023-06-26T12:16:02;93322.31;;;33.52;23.78
59367;BME280;45163;47.690;11.770;2023-06-26T12:18:37;93314.47;;;33.60;23.88
59367;BME280;45163;47.690;11.770;2023-06-26T12:21:03;93318.69;;;33.25;25.07
59367;BME280;45163;47.690;11.770;2023-06-26T12:23:33;93317.19;;;34.49;24.14
59367;BME280;45163;47.690;11.770;2023-06-26T12:26:16;93316.88;;;36.72;21.93
59367;BME280;45163;47.690;11.770;2023-06-26T12:28:44;93324.53;;;35.78;22.79
59367;BME280;45163;47.690;11.770;2023-06-26T12:31:14;93316.25;;;35.12;23.37
59367;BME280;45163;47.690;11.770;2023-06-26T12:33:43;93325.16;;;36.68;22.62
59367;BME280;45163;47.690;11.770;2023-06-26T12:36:13;93316.63;;;36.89;21.44
59367;BME280;45163;47.690;11.770;2023-06-26T12:38:40;93321.31;;;37.06;21.47
59367;BME280;45163;47.690;11.770;2023-06-26T12:41:13;93307.22;;;38.08;19.71
59367;BME280;45163;47.690;11.770;2023-06-26T12:43:40;93300.09;;;38.42;19.26
59367;BME280;45163;47.690;11.770;2023-06-26T12:46:07;93316.91;;;36.94;20.65
59367;BME280;45163;47.690;11.770;2023-06-26T12:48:43;93311.09;;;36.29;21.63
59367;BME280;45163;47.690;11.770;2023-06-26T12:51:16;93303.53;;;35.52;21.72
59367;BME280;45163;47.690;11.770;2023-06-26T12:53:42;93304.56;;;34.99;23.02
59367;BME280;45163;47.690;11.770;2023-06-26T12:56:09;93307.00;;;33.55;24.43
59367;BME280;45163;47.690;11.770;2023-06-26T12:58:37;93313.38;;;32.94;25.28
59367;BME280;45163;47.690;11.770;2023-06-26T13:01:04;93308.53;;;32.69;26.47
59367;BME280;45163;47.690;11.770;2023-06-26T13:03:36;93302.19;;;33.31;25.72
59367;BME280;45163;47.690;11.770;2023-06-26T13:06:02;93295.47;;;35.00;22.59
59367;BME280;45163;47.690;11.770;2023-06-26T13:08:28;93296.16;;;36.29;21.39